Huntington Beach, California
Current Conditions -  °F | °C
As of 1:53 PM on Thursday 18 Dec 2014 (Local Time) from KSNA Reporting Station
Overcast Overcast  
Wind Chill: 18°   Ceiling: 6500
Heat Index: 18°   Visibility: 10mi
Dew Point:   Wind: 5mph
Humidity: 52%   Direction: NA
Pressure: 30.14"   Gusts: NA
Location:  33.68°N, 118°W
Report Text: KSNA 182153Z VRB04KT 10SM FEW025 BKN065 OVC080 18/08 A3014 RMK AO2 SLP205 T01780078
Loading
Personal Weather Stations






























Interactive Weather Map New forecast layout! Learn more

10-Day Weather Forecast

Advertisements
Track Severe Weather on mobile